Time,TemperatureF,DewpointF,PressureIn,WindDirection,WindDirectionDegrees,WindSpeedMPH,WindSpeedGustMPH,Humidity,HourlyPrecipIn,Conditions,Clouds,dailyrainin,SoftwareType,DateUTC
2015-08-30 00:00:00,62.9,53.0,29.89,SE,132,0.0,0.0,70,0.00,,,0.00,Wunderground v.1.12,2015-08-30 06:00:00,
2015-08-30 00:05:00,62.7,52.4,29.89,SE,132,1.0,1.0,69,0.00,,,0.00,Wunderground v.1.12,2015-08-30 06:05:00,
2015-08-30 00:10:00,62.6,52.3,29.89,SE,133,2.0,2.0,69,0.00,,,0.00,Wunderground v.1.12,2015-08-30 06:10:00,
2015-08-30 00:15:00,62.7,52.8,29.90,SSW,192,1.0,1.0,70,0.00,,,0.00,Wunderground v.1.12,2015-08-30 06:15:00,
2015-08-30 00:20:00,62.9,53.0,29.89,West,271,1.0,1.0,70,0.00,,,0.00,Wunderground v.1.12,2015-08-30 06:20:00,
2015-08-30 00:30:00,62.6,53.1,29.89,West,271,1.0,1.0,71,0.00,,,0.00,Wunderground v.1.12,2015-08-30 06:30:00,
2015-08-30 00:35:00,62.3,52.4,29.89,West,272,0.0,0.0,70,0.00,,,0.00,Wunderground v.1.12,2015-08-30 06:35:00,
2015-08-30 00:40:00,62.3,52.8,29.89,West,271,1.0,1.0,71,0.00,,,0.00,Wunderground v.1.12,2015-08-30 06:40:00,
2015-08-30 00:45:00,62.4,52.9,29.89,West,272,2.0,2.0,71,0.00,,,0.00,Wunderground v.1.12,2015-08-30 06:45:00,
2015-08-30 00:50:00,62.0,52.5,29.89,West,272,0.0,0.0,71,0.00,,,0.00,Wunderground v.1.12,2015-08-30 06:50:00,
2015-08-30 00:55:00,62.1,52.6,29.89,West,272,2.0,2.0,71,0.00,,,0.00,Wunderground v.1.12,2015-08-30 06:55:00,
2015-08-30 01:10:00,62.2,52.7,29.89,West,268,0.0,0.0,71,0.00,,,0.00,Wunderground v.1.12,2015-08-30 07:10:00,
2015-08-30 01:15:00,61.9,52.8,29.89,West,270,2.0,2.0,72,0.00,,,0.00,Wunderground v.1.12,2015-08-30 07:15:00,
2015-08-30 01:20:00,61.7,52.6,29.89,West,271,1.0,1.0,72,0.00,,,0.00,Wunderground v.1.12,2015-08-30 07:20:00,
2015-08-30 01:25:00,61.9,52.8,29.89,West,268,3.0,3.0,72,0.00,,,0.00,Wunderground v.1.12,2015-08-30 07:25:00,
2015-08-30 01:30:00,61.6,52.9,29.89,West,280,3.0,3.0,73,0.00,,,0.00,Wunderground v.1.12,2015-08-30 07:30:00,
2015-08-30 01:40:00,61.6,52.9,29.89,West,280,1.0,1.0,73,0.00,,,0.00,Wunderground v.1.12,2015-08-30 07:40:00,
2015-08-30 01:45:00,61.2,52.8,29.89,West,280,1.0,1.0,74,0.00,,,0.00,Wunderground v.1.12,2015-08-30 07:45:00,
2015-08-30 01:50:00,61.1,52.4,29.90,West,280,1.0,1.0,73,0.00,,,0.00,Wunderground v.1.12,2015-08-30 07:50:00,
2015-08-30 01:55:00,61.0,52.3,29.90,West,279,2.0,2.0,73,0.00,,,0.00,Wunderground v.1.12,2015-08-30 07:55:00,
2015-08-30 02:00:00,61.2,52.5,29.89,West,277,0.0,0.0,73,0.00,,,0.00,Wunderground v.1.12,2015-08-30 08:00:00,
2015-08-30 02:10:00,60.5,51.8,29.89,West,278,1.0,1.0,73,0.00,,,0.00,Wunderground v.1.12,2015-08-30 08:10:00,
2015-08-30 02:15:00,61.1,52.4,29.89,West,278,0.0,0.0,73,0.00,,,0.00,Wunderground v.1.12,2015-08-30 08:15:00,
2015-08-30 02:20:00,60.9,52.2,29.89,West,278,0.0,0.0,73,0.00,,,0.00,Wunderground v.1.12,2015-08-30 08:20:00,
2015-08-30 02:25:00,60.7,52.0,29.89,West,277,0.0,0.0,73,0.00,,,0.00,Wunderground v.1.12,2015-08-30 08:25:00,
2015-08-30 02:30:00,60.6,51.9,29.89,West,278,0.0,0.0,73,0.00,,,0.00,Wunderground v.1.12,2015-08-30 08:30:00,
2015-08-30 02:35:00,60.5,51.8,29.89,West,277,0.0,0.0,73,0.00,,,0.00,Wunderground v.1.12,2015-08-30 08:35:00,
2015-08-30 02:45:00,60.3,51.6,29.89,West,278,1.0,1.0,73,0.00,,,0.00,Wunderground v.1.12,2015-08-30 08:45:00,
2015-08-30 02:50:00,60.1,51.4,29.89,West,277,0.0,0.0,73,0.00,,,0.00,Wunderground v.1.12,2015-08-30 08:50:00,
2015-08-30 02:55:00,59.9,51.2,29.90,West,277,0.0,0.0,73,0.00,,,0.00,Wunderground v.1.12,2015-08-30 08:55:00,
2015-08-30 03:00:00,59.7,51.0,29.90,West,277,0.0,0.0,73,0.00,,,0.00,Wunderground v.1.12,2015-08-30 09:00:00,
2015-08-30 03:05:00,59.4,50.7,29.89,West,277,0.0,0.0,73,0.00,,,0.00,Wunderground v.1.12,2015-08-30 09:05:00,
2015-08-30 03:10:00,59.6,51.3,29.90,West,277,0.0,0.0,74,0.00,,,0.00,Wunderground v.1.12,2015-08-30 09:10:00,
2015-08-30 03:20:00,59.6,50.9,29.89,West,278,0.0,0.0,73,0.00,,,0.00,Wunderground v.1.12,2015-08-30 09:20:00,
2015-08-30 03:25:00,59.6,51.3,29.89,West,277,0.0,0.0,74,0.00,,,0.00,Wunderground v.1.12,2015-08-30 09:25:00,
2015-08-30 03:30:00,59.4,51.5,29.90,West,277,0.0,0.0,75,0.00,,,0.00,Wunderground v.1.12,2015-08-30 09:30:00,
2015-08-30 03:35:00,59.1,51.2,29.89,West,277,0.0,0.0,75,0.00,,,0.00,Wunderground v.1.12,2015-08-30 09:35:00,
2015-08-30 03:40:00,59.4,51.5,29.89,West,277,0.0,0.0,75,0.00,,,0.00,Wunderground v.1.12,2015-08-30 09:40:00,
2015-08-30 03:50:00,59.0,51.1,29.89,West,277,0.0,0.0,75,0.00,,,0.00,Wunderground v.1.12,2015-08-30 09:50:00,
2015-08-30 03:55:00,59.2,51.3,29.89,West,277,0.0,0.0,75,0.00,,,0.00,Wunderground v.1.12,2015-08-30 09:55:00,
2015-08-30 04:00:00,59.1,50.8,29.89,West,277,0.0,0.0,74,0.00,,,0.00,Wunderground v.1.12,2015-08-30 10:00:00,
2015-08-30 04:05:00,59.1,51.2,29.89,West,277,0.0,0.0,75,0.00,,,0.00,Wunderground v.1.12,2015-08-30 10:05:00,
2015-08-30 04:10:00,59.4,51.1,29.89,SSE,163,0.0,0.0,74,0.00,,,0.00,Wunderground v.1.12,2015-08-30 10:10:00,
2015-08-30 04:15:00,59.3,51.4,29.89,SSE,162,0.0,0.0,75,0.00,,,0.00,Wunderground v.1.12,2015-08-30 10:15:00,
2015-08-30 04:25:00,58.9,51.0,29.89,SSE,162,0.0,0.0,75,0.00,,,0.00,Wunderground v.1.12,2015-08-30 10:25:00,
2015-08-30 04:30:00,58.7,51.2,29.89,SSE,163,0.0,0.0,76,0.00,,,0.00,Wunderground v.1.12,2015-08-30 10:30:00,
2015-08-30 04:35:00,58.5,50.6,29.89,SSE,163,0.0,0.0,75,0.00,,,0.00,Wunderground v.1.12,2015-08-30 10:35:00,
2015-08-30 04:40:00,58.8,50.9,29.89,SSE,162,0.0,0.0,75,0.00,,,0.00,Wunderground v.1.12,2015-08-30 10:40:00,
2015-08-30 04:45:00,58.5,50.6,29.89,SSE,162,0.0,0.0,75,0.00,,,0.00,Wunderground v.1.12,2015-08-30 10:45:00,
2015-08-30 04:50:00,58.8,50.9,29.89,SSE,163,0.0,0.0,75,0.00,,,0.00,Wunderground v.1.12,2015-08-30 10:50:00,
2015-08-30 04:55:00,58.4,50.5,29.89,SSE,162,0.0,0.0,75,0.00,,,0.00,Wunderground v.1.12,2015-08-30 10:55:00,
2015-08-30 05:00:00,59.0,51.1,29.89,SSE,162,2.0,2.0,75,0.00,,,0.00,Wunderground v.1.12,2015-08-30 11:00:00,
2015-08-30 05:05:00,58.4,50.5,29.89,SW,234,1.0,1.0,75,0.00,,,0.00,Wunderground v.1.12,2015-08-30 11:05:00,
2015-08-30 05:10:00,58.4,50.5,29.89,SW,234,1.0,1.0,75,0.00,,,0.00,Wunderground v.1.12,2015-08-30 11:10:00,
2015-08-30 05:15:00,58.1,50.6,29.90,SW,234,1.0,1.0,76,0.00,,,0.00,Wunderground v.1.12,2015-08-30 11:15:00,
2015-08-30 05:20:00,58.2,50.7,29.89,SW,234,1.0,1.0,76,0.00,,,0.00,Wunderground v.1.12,2015-08-30 11:20:00,
2015-08-30 05:30:00,57.9,51.4,29.89,SW,234,0.0,0.0,79,0.00,,,0.00,Wunderground v.1.12,2015-08-30 11:30:00,
2015-08-30 05:35:00,57.8,51.7,29.89,SW,232,0.0,0.0,80,0.00,,,0.00,Wunderground v.1.12,2015-08-30 11:35:00,
2015-08-30 05:40:00,57.7,51.9,29.89,SW,234,0.0,0.0,81,0.00,,,0.00,Wunderground v.1.12,2015-08-30 11:40:00,
2015-08-30 05:45:00,57.6,51.8,29.89,SW,234,0.0,0.0,81,0.00,,,0.00,Wunderground v.1.12,2015-08-30 11:45:00,
2015-08-30 05:50:00,57.4,51.6,29.89,West,260,3.0,3.0,81,0.00,,,0.00,Wunderground v.1.12,2015-08-30 11:50:00,
2015-08-30 05:55:00,57.0,51.6,29.89,West,268,2.0,2.0,82,0.00,,,0.00,Wunderground v.1.12,2015-08-30 11:55:00,
2015-08-30 06:05:00,56.7,51.6,29.89,West,268,1.0,1.0,83,0.00,,,0.00,Wunderground v.1.12,2015-08-30 12:05:00,
2015-08-30 06:10:00,56.4,51.3,29.90,West,267,0.0,0.0,83,0.00,,,0.00,Wunderground v.1.12,2015-08-30 12:10:00,
2015-08-30 06:15:00,56.2,51.1,29.89,West,267,2.0,2.0,83,0.00,,,0.00,Wunderground v.1.12,2015-08-30 12:15:00,
2015-08-30 06:20:00,55.9,50.8,29.90,West,270,1.0,1.0,83,0.00,,,0.00,Wunderground v.1.12,2015-08-30 12:20:00,
2015-08-30 06:25:00,55.8,50.7,29.89,West,270,2.0,2.0,83,0.00,,,0.00,Wunderground v.1.12,2015-08-30 12:25:00,
2015-08-30 06:30:00,55.6,50.5,29.89,West,272,0.0,0.0,83,0.00,,,0.00,Wunderground v.1.12,2015-08-30 12:30:00,
2015-08-30 06:40:00,55.7,50.6,29.89,West,271,0.0,0.0,83,0.00,,,0.00,Wunderground v.1.12,2015-08-30 12:40:00,
2015-08-30 06:45:00,55.3,50.2,29.90,West,270,0.0,0.0,83,0.00,,,0.00,Wunderground v.1.12,2015-08-30 12:45:00,
2015-08-30 06:50:00,55.1,50.0,29.90,West,271,0.0,0.0,83,0.00,,,0.00,Wunderground v.1.12,2015-08-30 12:50:00,
2015-08-30 06:55:00,55.1,50.0,29.89,West,272,0.0,0.0,83,0.00,,,0.00,Wunderground v.1.12,2015-08-30 12:55:00,
2015-08-30 07:00:00,55.0,49.9,29.89,West,271,0.0,0.0,83,0.00,,,0.00,Wunderground v.1.12,2015-08-30 13:00:00,
2015-08-30 07:05:00,56.3,51.2,29.90,West,270,2.0,6.0,83,0.00,,,0.00,Wunderground v.1.12,2015-08-30 13:05:00,
2015-08-30 07:15:00,54.2,49.1,29.89,West,271,0.0,0.0,83,0.00,,,0.00,Wunderground v.1.12,2015-08-30 13:15:00,
2015-08-30 07:20:00,54.3,49.2,29.89,West,272,0.0,0.0,83,0.00,,,0.00,Wunderground v.1.12,2015-08-30 13:20:00,
2015-08-30 07:25:00,54.2,49.1,29.90,West,272,1.0,1.0,83,0.00,,,0.00,Wunderground v.1.12,2015-08-30 13:25:00,
2015-08-30 07:30:00,53.8,48.8,29.89,West,270,1.0,1.0,83,0.00,,,0.00,Wunderground v.1.12,2015-08-30 13:30:00,
2015-08-30 07:35:00,53.8,48.8,29.89,West,270,0.0,0.0,83,0.00,,,0.00,Wunderground v.1.12,2015-08-30 13:35:00,
2015-08-30 07:45:00,53.3,48.3,29.89,West,273,1.0,1.0,83,0.00,,,0.00,Wunderground v.1.12,2015-08-30 13:45:00,
2015-08-30 07:50:00,53.4,48.4,29.90,West,272,1.0,1.0,83,0.00,,,0.00,Wunderground v.1.12,2015-08-30 13:50:00,
2015-08-30 07:55:00,53.0,48.0,29.89,West,272,3.0,3.0,83,0.00,,,0.00,Wunderground v.1.12,2015-08-30 13:55:00,
2015-08-30 08:00:00,53.1,48.4,29.89,West,273,0.0,0.0,84,0.00,,,0.00,Wunderground v.1.12,2015-08-30 14:00:00,
2015-08-30 08:05:00,53.3,48.6,29.90,West,272,2.0,2.0,84,0.00,,,0.00,Wunderground v.1.12,2015-08-30 14:05:00,
2015-08-30 08:10:00,53.9,49.2,29.90,West,273,1.0,1.0,84,0.00,,,0.00,Wunderground v.1.12,2015-08-30 14:10:00,
2015-08-30 08:20:00,54.4,49.3,29.89,West,273,0.0,0.0,83,0.00,,,0.00,Wunderground v.1.12,2015-08-30 14:20:00,
2015-08-30 08:25:00,54.6,49.5,29.89,West,272,0.0,0.0,83,0.00,,,0.00,Wunderground v.1.12,2015-08-30 14:25:00,
2015-08-30 08:30:00,55.0,50.3,29.89,West,273,0.0,0.0,84,0.00,,,0.00,Wunderground v.1.12,2015-08-30 14:30:00,
2015-08-30 08:35:00,55.5,50.4,29.90,West,272,0.0,0.0,83,0.00,,,0.00,Wunderground v.1.12,2015-08-30 14:35:00,
2015-08-30 08:40:00,55.9,50.8,29.89,West,272,0.0,0.0,83,0.00,,,0.00,Wunderground v.1.12,2015-08-30 14:40:00,
2015-08-30 08:50:00,57.3,52.2,29.90,SW,225,1.0,1.0,83,0.00,,,0.00,Wunderground v.1.12,2015-08-30 14:50:00,
2015-08-30 08:55:00,58.2,51.7,29.89,SE,136,2.0,2.0,79,0.00,,,0.00,Wunderground v.1.12,2015-08-30 14:55:00,
2015-08-30 09:00:00,59.0,52.1,29.89,ESE,120,2.0,2.0,78,0.00,,,0.00,Wunderground v.1.12,2015-08-30 15:00:00,
2015-08-30 09:10:00,60.9,52.6,29.90,ESE,108,1.0,1.0,74,0.00,,,0.00,Wunderground v.1.12,2015-08-30 15:10:00,
2015-08-30 09:20:00,61.6,52.9,29.89,East,81,4.0,4.0,73,0.00,,,0.00,Wunderground v.1.12,2015-08-30 15:20:00,
2015-08-30 09:25:00,61.6,52.5,29.89,ENE,60,3.0,3.0,72,0.00,,,0.00,Wunderground v.1.12,2015-08-30 15:25:00,
2015-08-30 09:30:00,61.6,52.9,29.89,ENE,60,2.0,2.0,73,0.00,,,0.00,Wunderground v.1.12,2015-08-30 15:30:00,
2015-08-30 09:35:00,62.0,52.9,29.90,ENE,59,0.0,0.0,72,0.00,,,0.00,Wunderground v.1.12,2015-08-30 15:35:00,
2015-08-30 09:45:00,62.5,53.0,29.90,ENE,59,2.0,2.0,71,0.00,,,0.00,Wunderground v.1.12,2015-08-30 15:45:00,
2015-08-30 09:50:00,62.5,53.0,29.89,East,81,1.0,1.0,71,0.00,,,0.00,Wunderground v.1.12,2015-08-30 15:50:00,
2015-08-30 09:55:00,62.5,53.0,29.89,East,81,0.0,0.0,71,0.00,,,0.00,Wunderground v.1.12,2015-08-30 15:55:00,
2015-08-30 10:05:00,62.5,53.0,29.89,NE,44,0.0,0.0,71,0.00,,,0.00,Wunderground v.1.12,2015-08-30 16:05:00,
2015-08-30 10:10:00,62.5,53.3,29.89,NE,46,0.0,0.0,72,0.00,,,0.00,Wunderground v.1.12,2015-08-30 16:10:00,
2015-08-30 10:15:00,63.1,53.5,29.89,ENE,68,0.0,0.0,71,0.00,,,0.00,Wunderground v.1.12,2015-08-30 16:15:00,
2015-08-30 10:25:00,63.4,53.4,29.89,ENE,68,2.0,2.0,70,0.00,,,0.00,Wunderground v.1.12,2015-08-30 16:25:00,
2015-08-30 10:30:00,63.5,52.7,29.89,ENE,67,3.0,3.0,68,0.00,,,0.00,Wunderground v.1.12,2015-08-30 16:30:00,
2015-08-30 10:35:00,63.6,52.8,29.89,ENE,67,5.0,5.0,68,0.00,,,0.00,Wunderground v.1.12,2015-08-30 16:35:00,
2015-08-30 10:45:00,66.6,53.2,29.90,NNW,341,15.0,15.0,62,0.00,,,0.00,Wunderground v.1.12,2015-08-30 16:45:00,
2015-08-30 11:00:00,70.4,54.9,29.89,SW,225,2.0,2.0,58,0.00,,,0.00,Wunderground v.1.12,2015-08-30 17:00:00,
2015-08-30 11:10:00,70.4,54.0,29.89,West,276,2.0,2.0,56,0.00,,,0.00,Wunderground v.1.12,2015-08-30 17:10:00,
2015-08-30 11:15:00,71.3,53.8,29.89,ESE,108,3.0,3.0,54,0.00,,,0.00,Wunderground v.1.12,2015-08-30 17:15:00,
2015-08-30 11:20:00,70.2,54.2,29.89,NNE,28,5.0,5.0,57,0.00,,,0.00,Wunderground v.1.12,2015-08-30 17:20:00,
2015-08-30 11:30:00,69.1,55.1,29.89,NE,42,4.0,4.0,61,0.00,,,0.00,Wunderground v.1.12,2015-08-30 17:30:00,
2015-08-30 11:35:00,68.4,54.4,29.89,NNE,30,7.0,7.0,61,0.00,,,0.00,Wunderground v.1.12,2015-08-30 17:35:00,
2015-08-30 11:45:00,67.4,53.9,29.89,NNE,30,4.0,4.0,62,0.00,,,0.00,Wunderground v.1.12,2015-08-30 17:45:00,
2015-08-30 11:50:00,67.5,54.0,29.89,NNE,23,3.0,3.0,62,0.00,,,0.00,Wunderground v.1.12,2015-08-30 17:50:00,
2015-08-30 11:55:00,67.0,53.5,29.89,NE,34,2.0,2.0,62,0.00,,,0.00,Wunderground v.1.12,2015-08-30 17:55:00,
2015-08-30 12:05:00,66.6,53.6,29.89,NE,34,7.0,7.0,63,0.00,,,0.00,Wunderground v.1.12,2015-08-30 18:05:00,
2015-08-30 12:10:00,66.3,53.3,29.90,ENE,70,1.0,1.0,63,0.00,,,0.00,Wunderground v.1.12,2015-08-30 18:10:00,
2015-08-30 12:15:00,66.4,53.8,29.90,NE,39,2.0,2.0,64,0.00,,,0.00,Wunderground v.1.12,2015-08-30 18:15:00,
2015-08-30 12:20:00,66.9,53.5,29.89,NE,34,8.0,8.0,62,0.00,,,0.00,Wunderground v.1.12,2015-08-30 18:20:00,
2015-08-30 12:25:00,67.4,53.9,29.89,NNE,24,7.0,7.0,62,0.00,,,0.00,Wunderground v.1.12,2015-08-30 18:25:00,
2015-08-30 12:35:00,67.3,54.3,29.89,ENE,76,0.0,0.0,63,0.00,,,0.00,Wunderground v.1.12,2015-08-30 18:35:00,
2015-08-30 12:40:00,67.4,53.5,29.89,NNE,27,2.0,2.0,61,0.00,,,0.00,Wunderground v.1.12,2015-08-30 18:40:00,
2015-08-30 12:45:00,67.5,53.6,29.89,NNE,27,1.0,1.0,61,0.00,,,0.00,Wunderground v.1.12,2015-08-30 18:45:00,
2015-08-30 12:50:00,67.3,54.3,29.89,NNE,28,1.0,1.0,63,0.00,,,0.00,Wunderground v.1.12,2015-08-30 18:50:00,
2015-08-30 13:00:00,67.5,52.7,29.90,South,187,5.0,5.0,59,0.00,,,0.00,Wunderground v.1.12,2015-08-30 19:00:00,
2015-08-30 13:05:00,67.6,52.3,29.89,SSW,192,4.0,4.0,58,0.00,,,0.00,Wunderground v.1.12,2015-08-30 19:05:00,
2015-08-30 13:10:00,68.4,52.1,29.89,SSE,158,4.0,4.0,56,0.00,,,0.00,Wunderground v.1.12,2015-08-30 19:10:00,
2015-08-30 13:15:00,69.2,52.3,29.89,SSW,198,1.0,1.0,55,0.00,,,0.00,Wunderground v.1.12,2015-08-30 19:15:00,
2015-08-30 13:20:00,70.8,52.8,29.90,NNW,329,5.0,5.0,53,0.00,,,0.00,Wunderground v.1.12,2015-08-30 19:20:00,
2015-08-30 13:30:00,72.0,51.2,29.89,South,180,8.0,8.0,48,0.00,,,0.00,Wunderground v.1.12,2015-08-30 19:30:00,